ΕΜΥ, Εθνική Μετεωρολογική Υπηρεσία - Δελτία Καιρού, Προγνώσεις

ΑΕΡΟΝΑΥΤΙΛΙΑ

GREEK AIRPORTS CODES

LGAV 031120Z 01025KT CAVOK 30/10 Q1014 RMK NOSIG=

EUROPEAN AIRPORTS CODES

LFPO 031130Z VRB05KT 9999 SCT041 22/13 Q1021 NOSIG=